Houston, Texas
Traffic Map
Current Weather Conditions
Houston, Texas
Broken Clouds
Broken Clouds
80°
Feels Like: 85°
Wind Chill: 80° Ceiling: 25000
Heat Index: 85° Visibility: 10mi
Dew Point: 76° Wind: 8mph
Humidity: 87% Direction: 170° (S)
Pressure: 29.89in Gusts: 0mph
Raw Report DataKIAH 200753Z 17007KT 10SM FEW020 BKN250 27/24 A2989 RMK AO2 SLP120 T02670244
Traffic Incident Summary
Active as of:
Severity:
Category:
InformationThere was an issue retrieving the traffic information for this location. Please try a different location or try again shortly.
Advertisements